createdAt,value
2024-03-05T00:00:16.526Z,20.50
2024-03-05T00:02:47.430Z,20.50
2024-03-05T00:05:17.681Z,20.50
2024-03-05T00:07:48.245Z,20.60
2024-03-05T00:10:18.737Z,20.60
2024-03-05T00:12:49.929Z,20.60
2024-03-05T00:15:20.242Z,20.60
2024-03-05T00:17:50.449Z,20.60
2024-03-05T00:20:23.528Z,20.70
2024-03-05T00:22:54.456Z,20.70
2024-03-05T00:25:24.688Z,20.70
2024-03-05T00:27:55.190Z,20.70
2024-03-05T00:30:25.403Z,20.70
2024-03-05T00:32:55.898Z,20.80
2024-03-05T00:35:26.138Z,20.70
2024-03-05T00:37:56.565Z,20.70
2024-03-05T00:40:27.001Z,20.70
2024-03-05T00:42:57.357Z,20.80
2024-03-05T00:45:28.588Z,20.80
2024-03-05T00:47:58.904Z,20.80
2024-03-05T00:50:29.261Z,20.80
2024-03-05T00:52:59.596Z,20.80
2024-03-05T00:55:31.363Z,20.80
2024-03-05T00:58:01.594Z,20.90
2024-03-05T01:00:32.068Z,20.90
2024-03-05T01:03:02.461Z,20.90
2024-03-05T01:05:32.791Z,20.90
2024-03-05T01:08:03.109Z,20.90
2024-03-05T01:10:33.482Z,20.90
2024-03-05T01:13:03.771Z,20.90
2024-03-05T01:15:33.977Z,20.90
2024-03-05T01:18:04.762Z,20.90
2024-03-05T01:20:34.999Z,21.00
2024-03-05T01:23:06.499Z,21.00
2024-03-05T01:25:36.900Z,21.00
2024-03-05T01:28:08.244Z,21.00
2024-03-05T01:30:39.732Z,21.00
2024-03-05T01:33:22.274Z,21.00
2024-03-05T01:35:54.261Z,21.00
2024-03-05T01:38:30.349Z,21.00
2024-03-05T01:41:00.614Z,21.10
2024-03-05T01:43:30.929Z,21.10
2024-03-05T01:46:01.359Z,21.10
2024-03-05T01:48:33.041Z,21.10
2024-03-05T01:51:04.024Z,21.10
2024-03-05T01:53:34.331Z,21.10
2024-03-05T01:56:04.600Z,21.10
2024-03-05T01:58:35.217Z,21.20
2024-03-05T02:01:09.673Z,21.20
2024-03-05T02:03:40.763Z,21.20
2024-03-05T02:06:13.786Z,21.20
2024-03-05T02:08:44.016Z,21.20
2024-03-05T02:11:17.074Z,21.20
2024-03-05T02:13:48.342Z,21.30
2024-03-05T02:16:18.719Z,21.20
2024-03-05T02:18:49.133Z,21.20
2024-03-05T02:21:25.491Z,21.30
2024-03-05T02:23:55.798Z,21.30
2024-03-05T02:26:30.857Z,21.30
2024-03-05T02:29:02.006Z,21.30
2024-03-05T02:31:32.243Z,21.30
2024-03-05T02:34:02.615Z,21.30
2024-03-05T02:36:32.946Z,21.30
2024-03-05T02:39:03.280Z,21.30
2024-03-05T02:41:33.506Z,21.30
2024-03-05T02:44:03.753Z,21.40
2024-03-05T02:46:34.057Z,21.40
2024-03-05T02:49:06.443Z,21.40
2024-03-05T02:51:36.710Z,21.40
2024-03-05T02:54:09.219Z,21.40
2024-03-05T02:56:39.440Z,21.40
2024-03-05T02:59:10.561Z,21.40
2024-03-05T03:01:40.797Z,21.50
2024-03-05T03:04:11.126Z,21.50
2024-03-05T03:06:42.692Z,21.50
2024-03-05T03:09:13.158Z,21.50
2024-03-05T03:11:44.279Z,21.50
2024-03-05T03:14:15.060Z,21.50
2024-03-05T03:16:49.451Z,21.50
2024-03-05T03:19:20.191Z,21.60
2024-03-05T03:21:50.638Z,21.60
2024-03-05T03:24:21.018Z,21.60
2024-03-05T03:26:53.896Z,21.60
2024-03-05T03:29:24.348Z,21.60
2024-03-05T03:31:54.652Z,21.60
2024-03-05T03:34:25.191Z,21.60
2024-03-05T03:36:56.420Z,21.70
2024-03-05T03:39:26.666Z,21.70
2024-03-05T03:41:57.738Z,21.70
2024-03-05T03:44:28.544Z,21.70
2024-03-05T03:46:58.888Z,21.70
2024-03-05T03:49:29.252Z,21.70
2024-03-05T03:51:59.643Z,21.80
2024-03-05T03:54:30.171Z,21.80
2024-03-05T03:57:00.376Z,21.80
2024-03-05T03:59:30.579Z,21.80
2024-03-05T04:02:00.799Z,21.80
2024-03-05T04:04:31.130Z,21.80
2024-03-05T04:07:02.588Z,21.90
2024-03-05T04:09:32.832Z,21.80
2024-03-05T04:12:03.111Z,21.90
2024-03-05T04:14:33.469Z,21.90
2024-03-05T04:17:03.725Z,21.90
2024-03-05T04:19:34.036Z,21.90
2024-03-05T04:22:05.154Z,22.00
2024-03-05T04:24:38.801Z,22.00
2024-03-05T04:27:09.552Z,22.00
2024-03-05T04:29:40.443Z,22.00
2024-03-05T04:34:52.603Z,22.00
2024-03-05T04:37:23.103Z,22.10
2024-03-05T04:39:53.495Z,22.10
2024-03-05T04:42:25.180Z,22.10
2024-03-05T04:44:58.957Z,22.10
2024-03-05T04:47:29.444Z,22.10
2024-03-05T04:50:01.496Z,22.10
2024-03-05T04:52:32.973Z,22.20
2024-03-05T04:55:03.641Z,22.20
2024-03-05T04:57:34.494Z,22.20
2024-03-05T05:00:05.153Z,22.20
2024-03-05T05:02:35.341Z,22.20
2024-03-05T05:05:06.683Z,22.20
2024-03-05T05:07:36.984Z,22.30
2024-03-05T05:10:09.188Z,22.30
2024-03-05T05:12:42.804Z,22.30
2024-03-05T05:15:14.802Z,22.30
2024-03-05T05:17:47.580Z,22.40
2024-03-05T05:20:18.441Z,22.40
2024-03-05T05:22:49.124Z,22.40
2024-03-05T05:25:22.471Z,22.40
2024-03-05T05:27:53.811Z,22.40
2024-03-05T05:30:26.452Z,22.40
2024-03-05T05:32:57.678Z,22.50
2024-03-05T05:35:27.990Z,22.50
2024-03-05T05:37:59.590Z,22.50
2024-03-05T05:40:30.035Z,22.50
2024-03-05T05:43:01.323Z,22.60
2024-03-05T05:45:32.518Z,22.60
2024-03-05T05:48:02.821Z,22.60
2024-03-05T05:50:34.104Z,22.60
2024-03-05T05:53:04.574Z,22.70
2024-03-05T05:55:37.313Z,22.70
2024-03-05T05:58:07.637Z,22.70
2024-03-05T06:00:42.453Z,22.70
2024-03-05T06:03:14.015Z,22.80
2024-03-05T06:05:45.410Z,22.80
2024-03-05T06:08:26.647Z,22.80
2024-03-05T06:10:59.901Z,22.80
2024-03-05T06:13:30.833Z,22.80
2024-03-05T06:16:01.283Z,22.90
2024-03-05T06:18:31.872Z,22.90
2024-03-05T06:21:05.201Z,22.90
2024-03-05T06:23:35.727Z,23.00
2024-03-05T06:26:06.831Z,23.00
2024-03-05T06:28:37.339Z,23.00
2024-03-05T06:31:08.156Z,23.00
2024-03-05T06:33:38.387Z,23.10
2024-03-05T06:36:09.631Z,23.10
2024-03-05T06:38:40.871Z,23.10
2024-03-05T06:41:14.097Z,23.10
2024-03-05T06:43:45.610Z,23.20
2024-03-05T06:46:16.269Z,23.20
2024-03-05T06:48:50.457Z,23.20
2024-03-05T06:51:34.245Z,23.20
2024-03-05T06:54:22.251Z,23.20
2024-03-05T06:56:52.553Z,23.30
2024-03-05T06:59:22.820Z,23.30
2024-03-05T07:01:53.387Z,23.30
2024-03-05T07:04:23.793Z,23.30
2024-03-05T07:06:54.149Z,23.30
2024-03-05T07:09:34.762Z,23.40
2024-03-05T07:12:05.154Z,23.40
2024-03-05T07:14:35.486Z,23.40
2024-03-05T07:17:05.859Z,23.40
2024-03-05T07:19:36.952Z,23.40
2024-03-05T07:22:09.956Z,23.40
2024-03-05T07:24:40.243Z,23.40
2024-03-05T07:27:10.582Z,23.40
2024-03-05T07:29:41.546Z,23.40
2024-03-05T07:32:13.144Z,23.40
2024-03-05T07:34:43.370Z,23.40
2024-03-05T07:37:15.307Z,23.40
2024-03-05T07:39:45.486Z,23.40
2024-03-05T07:42:15.979Z,23.40
2024-03-05T07:44:46.157Z,23.40
2024-03-05T07:47:16.505Z,23.50
2024-03-05T07:49:46.758Z,23.50
2024-03-05T07:52:17.158Z,23.50
2024-03-05T07:54:48.517Z,23.50
2024-03-05T07:57:18.808Z,23.50
2024-03-05T07:59:50.712Z,23.50
2024-03-05T08:02:22.309Z,23.50
2024-03-05T08:04:52.689Z,23.50
2024-03-05T08:07:23.528Z,23.50
2024-03-05T08:09:53.801Z,23.50
2024-03-05T08:12:24.168Z,23.50
2024-03-05T08:14:54.395Z,23.50
2024-03-05T08:17:24.884Z,23.50
2024-03-05T08:19:55.135Z,23.60
2024-03-05T08:22:25.821Z,23.60
2024-03-05T08:24:56.093Z,23.60
2024-03-05T08:27:26.557Z,23.50
2024-03-05T08:29:56.797Z,23.60
2024-03-05T08:32:27.312Z,23.50
2024-03-05T08:34:57.623Z,23.60
2024-03-05T08:37:28.030Z,23.60
2024-03-05T08:39:58.245Z,23.60
2024-03-05T08:42:29.299Z,23.60
2024-03-05T08:44:59.734Z,23.60
2024-03-05T08:47:30.490Z,23.60
2024-03-05T08:50:00.869Z,23.60
2024-03-05T08:52:31.493Z,23.60
2024-03-05T08:55:01.924Z,23.60
2024-03-05T08:57:32.666Z,23.60
2024-03-05T09:00:16.292Z,23.60
2024-03-05T09:02:56.515Z,23.60
2024-03-05T09:05:26.874Z,23.60
2024-03-05T09:07:57.442Z,23.60
2024-03-05T09:10:27.744Z,23.60
2024-03-05T09:12:58.683Z,23.60
2024-03-05T09:15:28.931Z,23.60
2024-03-05T09:17:59.359Z,23.60
2024-03-05T09:20:29.631Z,23.60
2024-03-05T09:23:00.490Z,23.60
2024-03-05T09:25:32.963Z,23.60
2024-03-05T09:28:03.714Z,23.60
2024-03-05T09:30:35.023Z,23.60
2024-03-05T09:33:06.114Z,23.70
2024-03-05T09:35:37.385Z,23.60
2024-03-05T09:38:08.873Z,23.60
2024-03-05T09:40:41.739Z,23.60
2024-03-05T09:43:13.148Z,23.60
2024-03-05T09:45:48.129Z,23.60
2024-03-05T09:48:21.174Z,23.60
2024-03-05T09:50:52.334Z,23.60
2024-03-05T09:53:22.945Z,23.60
2024-03-05T09:55:57.541Z,23.60
2024-03-05T09:58:43.572Z,23.60
2024-03-05T10:01:13.841Z,23.60
2024-03-05T10:03:44.914Z,23.60
2024-03-05T10:06:17.371Z,23.60
2024-03-05T10:08:47.885Z,23.60
2024-03-05T10:11:20.849Z,23.60
2024-03-05T10:13:51.975Z,23.60
2024-03-05T10:16:25.435Z,23.60
2024-03-05T10:18:55.822Z,23.60
2024-03-05T10:21:27.887Z,23.60
2024-03-05T10:24:03.159Z,23.60
2024-03-05T10:26:34.813Z,23.70
2024-03-05T10:29:12.859Z,23.60
2024-03-05T10:31:48.645Z,23.60
2024-03-05T10:34:21.920Z,23.60
2024-03-05T10:36:54.838Z,23.60
2024-03-05T10:39:25.809Z,23.60
2024-03-05T10:42:02.279Z,23.60
2024-03-05T10:44:33.337Z,23.60
2024-03-05T10:47:06.452Z,23.60
2024-03-05T10:49:38.486Z,23.60
2024-03-05T10:52:09.970Z,23.60
2024-03-05T10:54:41.408Z,23.60
2024-03-05T10:57:11.719Z,23.60
2024-03-05T10:59:49.982Z,23.60
2024-03-05T11:02:21.068Z,23.60
2024-03-05T11:04:53.278Z,23.60
2024-03-05T11:07:24.452Z,23.60
2024-03-05T11:09:55.488Z,23.60
2024-03-05T11:12:26.242Z,23.60
2024-03-05T11:14:57.426Z,23.60
2024-03-05T11:17:27.908Z,23.50
2024-03-05T11:19:59.562Z,23.60
2024-03-05T11:22:32.714Z,23.60
2024-03-05T11:25:09.242Z,23.60
2024-03-05T11:27:39.734Z,23.50
2024-03-05T11:30:14.691Z,23.50
2024-03-05T11:32:47.832Z,23.50
2024-03-05T11:35:22.417Z,23.50
2024-03-05T11:37:57.905Z,23.50
2024-03-05T11:40:37.220Z,23.50
2024-03-05T11:43:07.590Z,23.50
2024-03-05T11:45:56.788Z,23.50
2024-03-05T11:48:27.198Z,23.50
2024-03-05T11:50:58.674Z,23.50
2024-03-05T11:53:30.631Z,23.40
2024-03-05T11:56:11.151Z,23.50
2024-03-05T11:58:41.640Z,23.50
2024-03-05T12:01:12.153Z,23.50
2024-03-05T12:03:42.638Z,23.40
2024-03-05T12:06:14.097Z,23.40
2024-03-05T12:08:44.548Z,23.40
2024-03-05T12:11:15.130Z,23.40
2024-03-05T12:13:48.749Z,23.40
2024-03-05T12:16:19.176Z,23.40
2024-03-05T12:18:49.499Z,23.40
2024-03-05T12:21:21.026Z,23.40
2024-03-05T12:23:53.041Z,23.40
2024-03-05T12:26:24.194Z,23.40
2024-03-05T12:28:54.795Z,23.40
2024-03-05T12:31:25.477Z,23.40
2024-03-05T12:33:56.263Z,23.40
2024-03-05T12:36:26.784Z,23.40
2024-03-05T12:38:59.643Z,23.40
2024-03-05T12:41:30.026Z,23.40
2024-03-05T12:44:02.313Z,23.40
2024-03-05T12:46:35.078Z,23.40
2024-03-05T12:49:07.273Z,23.40
2024-03-05T12:51:37.614Z,23.40
2024-03-05T12:54:12.551Z,23.40
2024-03-05T12:56:49.243Z,23.30
2024-03-05T12:59:24.311Z,23.30
2024-03-05T13:01:59.533Z,23.30
2024-03-05T13:04:30.431Z,23.30
2024-03-05T13:07:00.900Z,23.30
2024-03-05T13:09:31.186Z,23.30
2024-03-05T13:12:02.442Z,23.30
2024-03-05T13:14:32.694Z,23.30
2024-03-05T13:17:03.433Z,23.30
2024-03-05T13:19:34.951Z,23.30
2024-03-05T13:22:05.599Z,23.30
2024-03-05T13:24:36.923Z,23.30
2024-03-05T13:27:07.479Z,23.30
2024-03-05T13:29:38.533Z,23.30
2024-03-05T13:32:09.314Z,23.30
2024-03-05T13:34:39.615Z,23.30
2024-03-05T13:37:09.887Z,23.30
2024-03-05T13:39:46.651Z,23.20
2024-03-05T13:42:17.582Z,23.20
2024-03-05T13:44:48.005Z,23.20
2024-03-05T13:47:20.154Z,23.20
2024-03-05T13:49:50.892Z,23.20
2024-03-05T13:52:21.285Z,23.20
2024-03-05T13:54:51.659Z,23.20
2024-03-05T13:57:22.093Z,23.20
2024-03-05T13:59:52.385Z,23.20
2024-03-05T14:02:22.695Z,23.20
2024-03-05T14:04:53.150Z,23.20
2024-03-05T14:07:23.683Z,23.20
2024-03-05T14:09:54.237Z,23.20
2024-03-05T14:12:24.824Z,23.10
2024-03-05T14:14:55.044Z,23.10
2024-03-05T14:17:27.600Z,23.10
2024-03-05T14:19:57.823Z,23.10
2024-03-05T14:22:30.535Z,23.10
2024-03-05T14:25:00.772Z,23.10
2024-03-05T14:27:31.067Z,23.10
2024-03-05T14:30:01.341Z,23.10
2024-03-05T14:32:33.436Z,23.10
2024-03-05T14:35:03.802Z,23.10
2024-03-05T14:37:34.386Z,23.10
2024-03-05T14:40:05.894Z,23.10
2024-03-05T14:42:38.545Z,23.10
2024-03-05T14:45:09.431Z,23.10
2024-03-05T14:47:44.291Z,23.10
2024-03-05T14:50:15.090Z,23.10
2024-03-05T14:52:45.639Z,23.00
2024-03-05T14:55:16.331Z,23.00
2024-03-05T14:57:50.085Z,23.00
2024-03-05T15:00:24.854Z,23.00
2024-03-05T15:02:55.635Z,23.00
2024-03-05T15:05:26.936Z,23.00
2024-03-05T15:07:57.473Z,23.00
2024-03-05T15:10:31.071Z,23.00
2024-03-05T15:13:01.492Z,23.00
2024-03-05T15:15:31.959Z,23.00
2024-03-05T15:18:03.592Z,23.00
2024-03-05T15:20:35.849Z,23.00
2024-03-05T15:23:07.578Z,23.00
2024-03-05T15:25:39.447Z,23.00
2024-03-05T15:28:14.071Z,22.90
2024-03-05T15:30:44.361Z,22.90
2024-03-05T15:33:14.892Z,22.90
2024-03-05T15:35:45.382Z,22.90
2024-03-05T15:38:19.647Z,22.90
2024-03-05T15:40:51.664Z,22.90
2024-03-05T15:43:23.732Z,22.90
2024-03-05T15:45:54.213Z,22.90
2024-03-05T15:48:25.566Z,22.90
2024-03-05T15:50:56.039Z,22.90
2024-03-05T15:53:27.697Z,22.90
2024-03-05T15:56:27.202Z,22.90
2024-03-05T15:59:15.758Z,22.90
2024-03-05T16:01:46.073Z,22.80
2024-03-05T16:04:38.741Z,22.80
2024-03-05T16:07:06.683Z,22.80
2024-03-05T16:09:37.179Z,22.80
2024-03-05T16:12:07.825Z,22.80
2024-03-05T16:14:39.416Z,22.80
2024-03-05T16:17:12.101Z,22.80
2024-03-05T16:19:42.385Z,22.80
2024-03-05T16:22:12.934Z,22.70
2024-03-05T16:24:43.493Z,22.70
2024-03-05T16:27:13.724Z,22.70
2024-03-05T16:29:44.006Z,22.70
2024-03-05T16:32:16.007Z,22.70
2024-03-05T16:34:47.264Z,22.70
2024-03-05T16:37:18.383Z,22.70
2024-03-05T16:39:50.030Z,22.70
2024-03-05T16:42:20.356Z,22.70
2024-03-05T16:44:50.805Z,22.70
2024-03-05T16:47:21.126Z,22.70
2024-03-05T16:49:51.468Z,22.70
2024-03-05T16:52:21.799Z,22.70
2024-03-05T16:54:52.146Z,22.70
2024-03-05T16:57:22.341Z,22.60
2024-03-05T16:59:54.874Z,22.60
2024-03-05T17:02:27.634Z,22.60
2024-03-05T17:07:56.884Z,22.60
2024-03-05T17:10:31.708Z,22.60
2024-03-05T17:13:20.975Z,22.60
2024-03-05T17:16:18.069Z,22.60
2024-03-05T17:18:48.385Z,22.60
2024-03-05T17:21:19.887Z,22.50
2024-03-05T17:23:50.575Z,22.60
2024-03-05T17:26:20.887Z,22.60
2024-03-05T17:28:51.328Z,22.60
2024-03-05T17:31:21.620Z,22.50
2024-03-05T17:33:51.810Z,22.50
2024-03-05T17:36:23.124Z,22.50
2024-03-05T17:38:54.633Z,22.50
2024-03-05T17:41:25.102Z,22.50
2024-03-05T17:43:55.935Z,22.50
2024-03-05T17:46:26.693Z,22.50
2024-03-05T17:48:56.921Z,22.50
2024-03-05T17:51:30.309Z,22.50
2024-03-05T17:54:00.704Z,22.50
2024-03-05T17:56:32.958Z,22.50
2024-03-05T17:59:03.367Z,22.50
2024-03-05T18:01:38.034Z,22.50
2024-03-05T18:04:09.607Z,22.50
2024-03-05T18:06:39.886Z,22.40
2024-03-05T18:09:21.165Z,22.40
2024-03-05T18:11:51.729Z,22.40
2024-03-05T18:14:24.716Z,22.40
2024-03-05T18:16:56.485Z,22.40
2024-03-05T18:19:27.967Z,22.40
2024-03-05T18:21:58.246Z,22.40
2024-03-05T18:24:29.798Z,22.40
2024-03-05T18:27:01.170Z,22.40
2024-03-05T18:29:32.241Z,22.40
2024-03-05T18:32:04.657Z,22.40
2024-03-05T18:34:38.329Z,22.30
2024-03-05T18:37:11.474Z,22.30
2024-03-05T18:39:41.744Z,22.30
2024-03-05T18:42:12.008Z,22.30
2024-03-05T18:44:42.489Z,22.30
2024-03-05T18:47:13.004Z,22.30
2024-03-05T18:49:44.917Z,22.30
2024-03-05T18:52:16.860Z,22.30
2024-03-05T18:54:47.057Z,22.30
2024-03-05T18:57:17.597Z,22.30
2024-03-05T18:59:47.923Z,22.20
2024-03-05T19:02:18.267Z,22.20
2024-03-05T19:04:48.629Z,22.20
2024-03-05T19:07:19.177Z,22.20
2024-03-05T19:09:50.190Z,22.20
2024-03-05T19:12:20.849Z,22.20
2024-03-05T19:14:51.120Z,22.20
2024-03-05T19:17:23.171Z,22.20
2024-03-05T19:19:53.460Z,22.20
2024-03-05T19:22:23.750Z,22.20
2024-03-05T19:24:54.000Z,22.20
2024-03-05T19:27:26.255Z,22.20
2024-03-05T19:29:59.281Z,22.20
2024-03-05T19:32:29.831Z,22.20
2024-03-05T19:35:00.120Z,22.10
2024-03-05T19:37:30.812Z,22.10
2024-03-05T19:40:01.135Z,22.20
2024-03-05T19:42:31.432Z,22.20
2024-03-05T19:45:01.654Z,22.20
2024-03-05T19:47:35.507Z,22.10
2024-03-05T19:50:08.345Z,22.10
2024-03-05T19:52:39.483Z,22.10
2024-03-05T19:55:11.243Z,22.10
2024-03-05T19:57:41.752Z,22.10
2024-03-05T20:00:20.368Z,22.10
2024-03-05T20:02:51.151Z,22.00
2024-03-05T20:05:22.292Z,22.00
2024-03-05T20:07:54.557Z,22.00
2024-03-05T20:10:24.831Z,22.00
2024-03-05T20:12:55.107Z,22.00
2024-03-05T20:15:25.711Z,22.00
2024-03-05T20:17:57.316Z,22.00
2024-03-05T20:20:27.571Z,22.00
2024-03-05T20:22:58.652Z,22.00
2024-03-05T20:25:29.203Z,22.00
2024-03-05T20:28:00.122Z,22.00
2024-03-05T20:30:31.370Z,22.00
2024-03-05T20:33:02.319Z,21.90
2024-03-05T20:35:32.857Z,21.90
2024-03-05T20:38:04.072Z,21.90
2024-03-05T20:40:34.332Z,21.90
2024-03-05T20:43:07.410Z,21.90
2024-03-05T20:45:39.446Z,21.90
2024-03-05T20:48:10.102Z,21.80
2024-03-05T20:50:40.355Z,21.80
2024-03-05T20:53:11.432Z,21.70
2024-03-05T20:55:41.829Z,21.70
2024-03-05T20:58:12.206Z,21.60
2024-03-05T21:00:43.216Z,21.60
2024-03-05T21:03:13.992Z,21.60
2024-03-05T21:05:45.432Z,21.50
2024-03-05T21:08:15.781Z,21.50
2024-03-05T21:10:48.054Z,21.50
2024-03-05T21:13:19.361Z,21.40
2024-03-05T21:15:50.127Z,21.40
2024-03-05T21:18:20.661Z,21.40
2024-03-05T21:20:50.879Z,21.40
2024-03-05T21:23:21.328Z,21.30
2024-03-05T21:26:05.183Z,21.30
2024-03-05T21:28:42.105Z,21.30
2024-03-05T21:31:13.559Z,21.30
2024-03-05T21:33:58.883Z,21.20
2024-03-05T21:36:29.212Z,21.30
2024-03-05T21:38:59.481Z,21.20
2024-03-05T21:41:29.693Z,21.20
2024-03-05T21:44:00.014Z,21.20
2024-03-05T21:46:30.380Z,21.20
2024-03-05T21:49:02.859Z,21.20
2024-03-05T21:51:33.786Z,21.20
2024-03-05T21:54:04.073Z,21.20
2024-03-05T21:56:34.392Z,21.20
2024-03-05T21:59:05.005Z,21.20
2024-03-05T22:01:35.366Z,21.20
2024-03-05T22:04:05.732Z,21.20
2024-03-05T22:06:35.934Z,21.20
2024-03-05T22:09:18.150Z,21.20
2024-03-05T22:11:49.777Z,21.20
2024-03-05T22:14:20.262Z,21.20
2024-03-05T22:16:50.577Z,21.20
2024-03-05T22:19:20.922Z,21.20
2024-03-05T22:21:51.319Z,21.20
2024-03-05T22:24:21.646Z,21.20
2024-03-05T22:26:51.889Z,21.20
2024-03-05T22:29:22.249Z,21.20
2024-03-05T22:31:53.652Z,21.20
2024-03-05T22:34:24.338Z,21.20
2024-03-05T22:36:54.562Z,21.20
2024-03-05T22:39:24.884Z,21.20
2024-03-05T22:41:58.032Z,21.20
2024-03-05T22:44:28.379Z,21.20
2024-03-05T22:46:58.661Z,21.20
2024-03-05T22:49:30.035Z,21.20
2024-03-05T22:52:00.266Z,21.20
2024-03-05T22:54:31.282Z,21.20
2024-03-05T22:57:01.491Z,21.20
2024-03-05T22:59:31.718Z,21.20
2024-03-05T23:02:01.962Z,21.20
2024-03-05T23:04:32.372Z,21.20
2024-03-05T23:07:02.674Z,21.30
2024-03-05T23:09:33.161Z,21.30
2024-03-05T23:12:03.413Z,21.30
2024-03-05T23:14:33.764Z,21.30
2024-03-05T23:17:04.360Z,21.30
2024-03-05T23:19:34.737Z,21.30
2024-03-05T23:22:05.384Z,21.30
2024-03-05T23:24:36.557Z,21.40
2024-03-05T23:27:07.100Z,21.40
2024-03-05T23:29:37.742Z,21.40
2024-03-05T23:32:08.202Z,21.40
2024-03-05T23:34:38.858Z,21.40
2024-03-05T23:37:09.220Z,21.40
2024-03-05T23:39:41.280Z,21.40
2024-03-05T23:42:11.746Z,21.50
2024-03-05T23:44:42.034Z,21.40
2024-03-05T23:47:12.414Z,21.50
2024-03-05T23:49:42.744Z,21.50
2024-03-05T23:52:13.063Z,21.50
2024-03-05T23:54:45.154Z,21.50
2024-03-05T23:57:15.465Z,21.60
2024-03-05T23:59:47.500Z,21.60
